createdAt,value
2023-05-15T00:00:17.685Z,4.38
2023-05-15T00:03:05.045Z,4.47
2023-05-15T00:05:33.022Z,3.90
2023-05-15T00:08:00.221Z,3.88
2023-05-15T00:10:27.774Z,3.70
2023-05-15T00:12:55.679Z,3.58
2023-05-15T00:15:23.508Z,4.10
2023-05-15T00:17:50.987Z,4.15
2023-05-15T00:20:18.681Z,4.10
2023-05-15T00:22:46.021Z,5.57
2023-05-15T00:25:13.569Z,3.80
2023-05-15T00:27:40.793Z,3.80
2023-05-15T00:30:08.937Z,4.05
2023-05-15T00:32:36.269Z,4.30
2023-05-15T00:35:05.394Z,4.05
2023-05-15T00:37:32.619Z,3.58
2023-05-15T00:40:00.226Z,4.07
2023-05-15T00:42:29.100Z,3.55
2023-05-15T00:44:58.432Z,4.28
2023-05-15T00:47:27.372Z,3.80
2023-05-15T00:49:55.770Z,3.42
2023-05-15T00:52:23.723Z,3.63
2023-05-15T00:54:51.560Z,3.35
2023-05-15T00:57:20.265Z,3.72
2023-05-15T00:59:48.933Z,3.00
2023-05-15T01:02:17.703Z,3.15
2023-05-15T01:04:45.949Z,3.00
2023-05-15T01:07:15.107Z,3.33
2023-05-15T01:09:45.828Z,2.78
2023-05-15T01:12:15.585Z,3.08
2023-05-15T01:14:43.080Z,2.97
2023-05-15T01:17:10.264Z,3.25
2023-05-15T01:19:38.879Z,3.28
2023-05-15T01:22:18.448Z,3.38
2023-05-15T01:25:15.195Z,3.33
2023-05-15T01:27:51.478Z,3.10
2023-05-15T01:30:31.129Z,3.05
2023-05-15T01:33:22.518Z,3.45
2023-05-15T01:36:12.655Z,3.30
2023-05-15T01:38:58.806Z,3.45
2023-05-15T01:41:45.485Z,3.38
2023-05-15T01:44:26.488Z,2.95
2023-05-15T01:46:57.796Z,3.63
2023-05-15T01:49:27.252Z,3.50
2023-05-15T01:52:18.967Z,3.38
2023-05-15T01:54:46.831Z,3.50
2023-05-15T01:57:15.425Z,3.05
2023-05-15T01:59:43.193Z,3.30
2023-05-15T02:02:11.233Z,3.10
2023-05-15T02:04:39.043Z,3.60
2023-05-15T02:07:07.618Z,4.03
2023-05-15T02:09:36.179Z,3.70
2023-05-15T02:12:05.399Z,3.28
2023-05-15T02:14:33.305Z,3.20
2023-05-15T02:17:00.876Z,3.72
2023-05-15T02:19:28.164Z,3.58
2023-05-15T02:21:55.749Z,3.72
2023-05-15T02:24:22.926Z,3.47
2023-05-15T02:27:04.891Z,4.32
2023-05-15T02:29:42.471Z,3.92
2023-05-15T02:32:17.308Z,4.13
2023-05-15T02:35:19.471Z,5.97
2023-05-15T02:37:49.842Z,4.00
2023-05-15T02:40:19.641Z,3.63
2023-05-15T02:42:48.045Z,3.80
2023-05-15T02:45:16.470Z,3.80
2023-05-15T02:47:45.818Z,3.05
2023-05-15T02:50:13.274Z,3.92
2023-05-15T02:52:40.731Z,3.45
2023-05-15T02:55:08.795Z,3.75
2023-05-15T02:57:36.541Z,5.10
2023-05-15T03:00:06.745Z,3.88
2023-05-15T03:02:34.255Z,4.43
2023-05-15T03:05:01.519Z,4.07
2023-05-15T03:07:29.162Z,3.50
2023-05-15T03:09:56.432Z,3.15
2023-05-15T03:12:23.924Z,3.72
2023-05-15T03:14:51.090Z,3.75
2023-05-15T03:17:18.554Z,3.25
2023-05-15T03:19:45.740Z,4.10
2023-05-15T03:22:13.423Z,3.55
2023-05-15T03:24:40.674Z,3.55
2023-05-15T03:27:08.137Z,4.60
2023-05-15T03:29:35.334Z,3.60
2023-05-15T03:32:02.807Z,3.88
2023-05-15T03:34:30.138Z,3.67
2023-05-15T03:36:57.961Z,4.13
2023-05-15T03:39:25.173Z,3.35
2023-05-15T03:41:52.639Z,3.92
2023-05-15T03:44:22.770Z,4.20
2023-05-15T03:46:50.377Z,4.05
2023-05-15T03:49:18.286Z,3.67
2023-05-15T03:51:45.873Z,3.17
2023-05-15T03:54:14.222Z,3.92
2023-05-15T03:56:41.727Z,4.20
2023-05-15T03:59:09.190Z,4.10
2023-05-15T04:01:47.333Z,4.10
2023-05-15T04:04:22.838Z,4.07
2023-05-15T04:06:51.416Z,4.38
2023-05-15T04:09:18.636Z,3.88
2023-05-15T04:11:46.826Z,4.35
2023-05-15T04:14:14.123Z,5.00
2023-05-15T04:16:41.729Z,5.25
2023-05-15T04:19:08.950Z,4.63
2023-05-15T04:21:36.517Z,4.53
2023-05-15T04:24:04.141Z,4.32
2023-05-15T04:26:31.739Z,4.53
2023-05-15T04:29:03.914Z,7.07
2023-05-15T04:31:32.417Z,4.47
2023-05-15T04:33:59.655Z,3.95
2023-05-15T04:36:27.223Z,4.60
2023-05-15T04:38:54.513Z,4.45
2023-05-15T04:41:22.325Z,3.97
2023-05-15T04:43:49.576Z,4.40
2023-05-15T04:46:17.086Z,4.55
2023-05-15T04:48:44.276Z,4.38
2023-05-15T04:51:12.291Z,4.50
2023-05-15T04:53:39.431Z,4.38
2023-05-15T04:56:07.101Z,4.13
2023-05-15T04:58:34.257Z,4.57
2023-05-15T05:01:03.918Z,4.03
2023-05-15T05:03:31.650Z,4.35
2023-05-15T05:05:59.262Z,3.95
2023-05-15T05:08:26.584Z,5.50
2023-05-15T05:10:59.854Z,5.60
2023-05-15T05:13:27.039Z,4.40
2023-05-15T05:15:54.595Z,4.30
2023-05-15T05:18:21.778Z,4.50
2023-05-15T05:20:50.662Z,4.93
2023-05-15T05:23:18.361Z,4.50
2023-05-15T05:25:46.178Z,4.32
2023-05-15T05:28:13.402Z,4.82
2023-05-15T05:30:45.498Z,4.95
2023-05-15T05:33:13.053Z,5.65
2023-05-15T05:35:40.778Z,5.03
2023-05-15T05:38:08.006Z,5.55
2023-05-15T05:40:35.508Z,5.65
2023-05-15T05:43:03.137Z,5.20
2023-05-15T05:45:31.219Z,5.10
2023-05-15T05:47:58.756Z,5.00
2023-05-15T05:50:26.411Z,5.68
2023-05-15T05:52:53.552Z,6.32
2023-05-15T05:55:21.014Z,5.70
2023-05-15T05:57:48.250Z,5.85
2023-05-15T06:00:16.129Z,4.72
2023-05-15T06:02:43.848Z,5.13
2023-05-15T06:05:11.606Z,5.93
2023-05-15T06:07:38.864Z,5.78
2023-05-15T06:10:09.550Z,6.18
2023-05-15T06:12:37.007Z,5.47
2023-05-15T06:15:05.032Z,6.22
2023-05-15T06:17:32.269Z,6.35
2023-05-15T06:19:59.823Z,6.35
2023-05-15T06:22:27.011Z,5.93
2023-05-15T06:24:54.487Z,3.67
2023-05-15T06:27:21.660Z,5.47
2023-05-15T06:29:49.162Z,4.60
2023-05-15T06:32:16.397Z,3.20
2023-05-15T06:34:43.977Z,3.33
2023-05-15T06:37:11.857Z,3.95
2023-05-15T06:39:39.457Z,4.38
2023-05-15T06:42:06.806Z,4.03
2023-05-15T06:44:36.025Z,3.10
2023-05-15T06:47:03.601Z,4.13
2023-05-15T06:49:31.282Z,4.28
2023-05-15T06:51:58.615Z,3.90
2023-05-15T06:54:26.174Z,3.20
2023-05-15T06:56:53.361Z,3.20
2023-05-15T06:59:20.901Z,3.05
2023-05-15T07:01:48.141Z,3.92
2023-05-15T07:04:15.832Z,3.53
2023-05-15T07:06:43.698Z,3.45
2023-05-15T07:09:12.859Z,4.20
2023-05-15T07:11:42.259Z,3.47
2023-05-15T07:14:09.824Z,3.47
2023-05-15T07:16:37.004Z,4.70
2023-05-15T07:19:04.569Z,3.63
2023-05-15T07:21:32.505Z,3.08
2023-05-15T07:24:00.039Z,3.17
2023-05-15T07:26:34.369Z,3.25
2023-05-15T07:29:04.505Z,3.25
2023-05-15T07:31:32.177Z,2.95
2023-05-15T07:33:59.679Z,2.90
2023-05-15T07:36:26.991Z,2.53
2023-05-15T07:38:54.502Z,2.80
2023-05-15T07:41:22.077Z,2.80
2023-05-15T07:43:49.550Z,2.97
2023-05-15T07:46:16.871Z,2.85
2023-05-15T07:48:44.436Z,3.00
2023-05-15T07:51:11.633Z,3.83
2023-05-15T07:53:39.119Z,4.32
2023-05-15T07:56:06.560Z,3.90
2023-05-15T07:58:37.102Z,4.10
2023-05-15T08:01:05.161Z,3.72
2023-05-15T08:03:33.987Z,3.97
2023-05-15T08:06:01.420Z,3.47
2023-05-15T08:08:28.980Z,3.45
2023-05-15T08:10:56.282Z,3.63
2023-05-15T08:13:23.892Z,2.60
2023-05-15T08:15:51.092Z,3.58
2023-05-15T08:18:18.675Z,3.55
2023-05-15T08:20:46.054Z,3.47
2023-05-15T08:23:13.586Z,3.85
2023-05-15T08:25:40.822Z,3.38
2023-05-15T08:28:08.381Z,4.15
2023-05-15T08:30:36.270Z,4.38
2023-05-15T08:33:03.878Z,4.28
2023-05-15T08:35:31.148Z,4.18
2023-05-15T08:37:59.091Z,4.25
2023-05-15T08:40:38.324Z,3.53
2023-05-15T08:43:15.834Z,2.90
2023-05-15T08:45:44.004Z,3.53
2023-05-15T08:48:16.394Z,3.40
2023-05-15T08:50:44.665Z,3.75
2023-05-15T08:53:13.363Z,3.42
2023-05-15T08:55:40.916Z,3.28
2023-05-15T08:58:09.266Z,3.20
2023-05-15T09:00:37.779Z,2.42
2023-05-15T09:03:05.825Z,2.90
2023-05-15T09:05:33.584Z,3.00
2023-05-15T09:08:04.452Z,3.30
2023-05-15T09:10:33.227Z,3.00
2023-05-15T09:13:02.382Z,3.28
2023-05-15T09:15:30.663Z,3.13
2023-05-15T09:17:58.392Z,3.30
2023-05-15T09:20:34.012Z,3.40
2023-05-15T09:23:03.355Z,3.20
2023-05-15T09:25:40.545Z,3.95
2023-05-15T09:28:25.112Z,4.78
2023-05-15T09:30:58.804Z,4.07
2023-05-15T09:33:37.977Z,4.10
2023-05-15T09:36:07.284Z,3.65
2023-05-15T09:38:40.064Z,4.85
2023-05-15T09:41:09.176Z,3.50
2023-05-15T09:43:38.547Z,3.72
2023-05-15T09:46:07.119Z,4.82
2023-05-15T09:48:35.696Z,3.85
2023-05-15T09:51:04.609Z,3.70
2023-05-15T09:53:32.328Z,4.25
2023-05-15T09:55:59.640Z,3.75
2023-05-15T09:58:27.143Z,4.53
2023-05-15T10:00:54.301Z,4.18
2023-05-15T10:03:21.994Z,4.85
2023-05-15T10:05:49.404Z,3.90
2023-05-15T10:08:27.383Z,4.00
2023-05-15T10:10:56.052Z,3.85
2023-05-15T10:13:24.046Z,4.10
2023-05-15T10:15:52.443Z,4.07
2023-05-15T10:18:26.247Z,4.03
2023-05-15T10:20:53.544Z,4.40
2023-05-15T10:23:22.557Z,4.40
2023-05-15T10:26:03.297Z,4.63
2023-05-15T10:28:32.109Z,3.90
2023-05-15T10:31:04.025Z,4.30
2023-05-15T10:33:32.911Z,3.75
2023-05-15T10:36:00.823Z,4.10
2023-05-15T10:38:29.525Z,3.33
2023-05-15T10:41:13.144Z,5.63
2023-05-15T10:43:44.804Z,4.55
2023-05-15T10:46:14.041Z,4.65
2023-05-15T10:48:42.308Z,3.45
2023-05-15T10:51:23.838Z,3.90
2023-05-15T10:56:18.767Z,3.30
2023-05-15T10:58:51.590Z,2.97
2023-05-15T11:01:33.141Z,3.40
2023-05-15T11:04:16.702Z,2.72
2023-05-15T11:06:49.589Z,4.20
2023-05-15T11:09:28.788Z,4.25
2023-05-15T11:11:58.145Z,4.53
2023-05-15T11:14:35.175Z,3.67
2023-05-15T11:17:04.759Z,3.92
2023-05-15T11:19:40.117Z,3.63
2023-05-15T11:22:28.203Z,4.40
2023-05-15T11:25:01.650Z,3.50
2023-05-15T11:27:33.257Z,3.50
2023-05-15T11:30:17.986Z,3.97
2023-05-15T11:32:59.731Z,3.92
2023-05-15T11:35:46.649Z,3.75
2023-05-15T11:38:18.364Z,3.42
2023-05-15T11:40:52.680Z,3.45
2023-05-15T11:43:24.858Z,3.42
2023-05-15T11:46:05.012Z,3.20
2023-05-15T11:48:43.260Z,3.80
2023-05-15T11:51:30.262Z,3.30
2023-05-15T11:53:58.304Z,3.22
2023-05-15T11:56:30.194Z,3.95
2023-05-15T11:58:59.379Z,3.40
2023-05-15T12:01:28.328Z,3.63
2023-05-15T12:03:56.080Z,4.15
2023-05-15T12:06:24.482Z,4.20
2023-05-15T12:08:53.407Z,4.10
2023-05-15T12:11:25.449Z,4.22
2023-05-15T12:13:56.526Z,3.25
2023-05-15T12:16:28.252Z,4.75
2023-05-15T12:18:58.947Z,3.72
2023-05-15T12:21:27.526Z,4.65
2023-05-15T12:26:28.320Z,4.20
2023-05-15T12:28:56.457Z,4.93
2023-05-15T12:31:24.334Z,4.82
2023-05-15T12:33:51.766Z,5.10
2023-05-15T12:36:22.625Z,4.93
2023-05-15T12:38:49.923Z,4.07
2023-05-15T12:41:17.673Z,4.55
2023-05-15T12:43:44.900Z,4.20
2023-05-15T12:46:15.015Z,5.82
2023-05-15T12:48:42.403Z,4.93
2023-05-15T12:51:09.955Z,5.18
2023-05-15T12:53:40.061Z,4.65
2023-05-15T12:56:09.361Z,4.90
2023-05-15T12:58:38.330Z,4.78
2023-05-15T13:01:06.318Z,5.05
2023-05-15T13:03:34.382Z,5.50
2023-05-15T13:06:07.138Z,5.43
2023-05-15T13:08:40.391Z,5.18
2023-05-15T13:11:12.905Z,5.22
2023-05-15T13:13:45.130Z,5.40
2023-05-15T13:16:24.613Z,5.10
2023-05-15T13:18:52.484Z,5.53
2023-05-15T13:21:20.125Z,5.40
2023-05-15T13:23:47.527Z,5.18
2023-05-15T13:26:14.990Z,4.70
2023-05-15T13:28:42.194Z,5.20
2023-05-15T13:31:09.697Z,5.45
2023-05-15T13:33:37.629Z,5.25
2023-05-15T13:36:05.557Z,5.15
2023-05-15T13:38:33.484Z,5.35
2023-05-15T13:41:01.052Z,5.30
2023-05-15T13:43:28.372Z,4.22
2023-05-15T13:45:56.080Z,3.88
2023-05-15T13:48:23.390Z,3.60
2023-05-15T13:50:51.207Z,3.50
2023-05-15T13:53:18.799Z,3.78
2023-05-15T13:55:46.932Z,4.05
2023-05-15T13:58:15.148Z,3.70
2023-05-15T14:00:44.056Z,3.72
2023-05-15T14:03:14.790Z,3.80
2023-05-15T14:05:42.907Z,3.83
2023-05-15T14:08:10.143Z,3.92
2023-05-15T14:10:37.735Z,3.72
2023-05-15T14:13:05.038Z,4.03
2023-05-15T14:15:32.521Z,3.80
2023-05-15T14:17:59.754Z,4.10
2023-05-15T14:20:27.520Z,4.88
2023-05-15T14:22:54.939Z,4.07
2023-05-15T14:25:22.699Z,4.70
2023-05-15T14:27:49.914Z,5.00
2023-05-15T14:30:17.386Z,5.07
2023-05-15T14:32:44.586Z,5.07
2023-05-15T14:35:12.054Z,5.22
2023-05-15T14:37:39.282Z,4.97
2023-05-15T14:40:08.150Z,5.60
2023-05-15T14:42:35.345Z,5.85
2023-05-15T14:45:03.159Z,5.88
2023-05-15T14:47:31.365Z,5.63
2023-05-15T14:49:59.078Z,6.45
2023-05-15T14:52:26.273Z,6.78
2023-05-15T14:55:07.779Z,6.72
2023-05-15T14:57:35.855Z,7.07
2023-05-15T15:00:06.315Z,7.90
2023-05-15T15:02:33.862Z,8.57
2023-05-15T15:05:01.668Z,8.20
2023-05-15T15:07:32.750Z,8.75
2023-05-15T15:10:00.259Z,8.52
2023-05-15T15:12:27.720Z,9.65
2023-05-15T15:14:55.174Z,8.57
2023-05-15T15:17:22.823Z,9.43
2023-05-15T15:19:50.338Z,9.10
2023-05-15T15:22:17.540Z,9.23
2023-05-15T15:24:45.160Z,10.85
2023-05-15T15:27:12.428Z,9.43
2023-05-15T15:29:39.986Z,8.88
2023-05-15T15:32:07.595Z,8.85
2023-05-15T15:34:35.193Z,8.93
2023-05-15T15:37:02.364Z,9.57
2023-05-15T15:39:29.817Z,10.75
2023-05-15T15:41:57.102Z,11.50
2023-05-15T15:44:24.562Z,11.55
2023-05-15T15:46:51.748Z,10.98
2023-05-15T15:49:19.249Z,10.40
2023-05-15T15:51:46.595Z,12.63
2023-05-15T15:54:14.046Z,11.55
2023-05-15T15:56:42.899Z,12.52
2023-05-15T15:59:10.411Z,11.45
2023-05-15T16:01:37.645Z,12.10
2023-05-15T16:04:05.238Z,14.13
2023-05-15T16:06:33.469Z,13.25
2023-05-15T16:09:01.767Z,13.10
2023-05-15T16:11:29.738Z,13.75
2023-05-15T16:13:57.193Z,15.13
2023-05-15T16:16:24.707Z,13.82
2023-05-15T16:18:52.212Z,13.48
2023-05-15T16:21:19.408Z,17.25
2023-05-15T16:23:46.947Z,16.45
2023-05-15T16:26:14.135Z,17.58
2023-05-15T16:28:41.599Z,18.60
2023-05-15T16:31:09.713Z,18.83
2023-05-15T16:33:37.411Z,18.40
2023-05-15T16:36:05.356Z,17.65
2023-05-15T16:38:32.920Z,18.75
2023-05-15T16:41:00.101Z,17.25
2023-05-15T16:43:27.679Z,18.15
2023-05-15T16:45:54.888Z,17.27
2023-05-15T16:48:22.984Z,19.85
2023-05-15T16:50:50.527Z,19.63
2023-05-15T16:53:18.870Z,21.15
2023-05-15T16:55:47.054Z,22.35
2023-05-15T16:58:14.951Z,20.88
2023-05-15T17:00:42.114Z,22.67
2023-05-15T17:03:09.704Z,20.02
2023-05-15T17:05:36.920Z,19.58
2023-05-15T17:08:05.660Z,19.92
2023-05-15T17:10:32.868Z,20.15
2023-05-15T17:13:00.465Z,18.88
2023-05-15T17:15:28.039Z,19.90
2023-05-15T17:17:58.069Z,20.20
2023-05-15T17:20:25.336Z,22.05
2023-05-15T17:22:52.810Z,21.42
2023-05-15T17:25:20.019Z,20.20
2023-05-15T17:27:47.494Z,22.80
2023-05-15T17:30:14.946Z,21.05
2023-05-15T17:32:42.477Z,22.63
2023-05-15T17:35:10.389Z,22.08
2023-05-15T17:37:38.115Z,20.17
2023-05-15T17:40:05.886Z,20.40
2023-05-15T17:42:33.451Z,22.48
2023-05-15T17:45:00.852Z,19.20
2023-05-15T17:47:28.510Z,19.83
2023-05-15T17:49:55.872Z,20.48
2023-05-15T17:52:23.371Z,22.08
2023-05-15T17:54:50.884Z,21.25
2023-05-15T17:57:18.454Z,23.40
2023-05-15T17:59:45.702Z,23.88
2023-05-15T18:02:13.265Z,24.38
2023-05-15T18:04:40.562Z,24.75
2023-05-15T18:07:08.048Z,24.27
2023-05-15T18:09:35.402Z,23.02
2023-05-15T18:12:02.890Z,26.17
2023-05-15T18:14:30.125Z,24.15
2023-05-15T18:16:57.794Z,26.88
2023-05-15T18:19:25.113Z,24.02
2023-05-15T18:21:52.789Z,26.60
2023-05-15T18:24:20.109Z,24.80
2023-05-15T18:26:47.652Z,23.10
2023-05-15T18:29:14.830Z,25.55
2023-05-15T18:31:42.473Z,23.08
2023-05-15T18:34:09.736Z,23.35
2023-05-15T18:36:37.223Z,24.05
2023-05-15T18:39:04.434Z,23.55
2023-05-15T18:41:32.007Z,24.17
2023-05-15T18:43:59.287Z,25.00
2023-05-15T18:46:28.440Z,21.80
2023-05-15T18:48:55.775Z,24.05
2023-05-15T18:51:23.912Z,23.38
2023-05-15T18:53:51.325Z,23.10
2023-05-15T18:56:18.826Z,24.40
2023-05-15T18:58:47.490Z,24.35
2023-05-15T19:01:15.099Z,25.20
2023-05-15T19:03:42.414Z,23.90
2023-05-15T19:06:10.043Z,21.38
2023-05-15T19:08:37.201Z,23.77
2023-05-15T19:11:04.667Z,24.92
2023-05-15T19:13:33.194Z,23.25
2023-05-15T19:16:00.693Z,23.02
2023-05-15T19:18:27.971Z,24.55
2023-05-15T19:20:56.801Z,23.45
2023-05-15T19:23:24.665Z,24.85
2023-05-15T19:25:52.705Z,24.33
2023-05-15T19:28:19.921Z,22.83
2023-05-15T19:30:47.413Z,24.35
2023-05-15T19:33:16.070Z,23.52
2023-05-15T19:35:44.332Z,25.75
2023-05-15T19:38:11.674Z,22.67
2023-05-15T19:40:39.268Z,25.80
2023-05-15T19:43:06.569Z,25.23
2023-05-15T19:45:34.061Z,25.30
2023-05-15T19:48:01.435Z,25.88
2023-05-15T19:50:29.549Z,27.83
2023-05-15T19:52:57.398Z,24.33
2023-05-15T19:55:25.080Z,27.20
2023-05-15T19:57:56.036Z,28.08
2023-05-15T20:00:23.945Z,29.92
2023-05-15T20:02:51.324Z,28.60
2023-05-15T20:05:18.962Z,27.85
2023-05-15T20:07:46.377Z,27.77
2023-05-15T20:10:14.227Z,26.67
2023-05-15T20:12:41.404Z,29.27
2023-05-15T20:15:09.296Z,29.35
2023-05-15T20:17:36.465Z,34.42
2023-05-15T20:20:08.912Z,29.35
2023-05-15T20:22:36.259Z,28.83
2023-05-15T20:25:04.056Z,27.55
2023-05-15T20:27:31.283Z,25.50
2023-05-15T20:29:59.311Z,25.10
2023-05-15T20:32:26.847Z,23.77
2023-05-15T20:34:55.963Z,20.85
2023-05-15T20:37:27.230Z,22.35
2023-05-15T20:39:54.952Z,21.80
2023-05-15T20:42:22.705Z,18.25
2023-05-15T20:44:51.661Z,20.92
2023-05-15T20:47:19.016Z,19.25
2023-05-15T20:49:46.634Z,19.17
2023-05-15T20:52:13.924Z,19.95
2023-05-15T20:54:41.427Z,21.20
2023-05-15T20:57:08.687Z,19.58
2023-05-15T20:59:36.224Z,19.25
2023-05-15T21:02:03.461Z,19.88
2023-05-15T21:04:31.289Z,17.30
2023-05-15T21:06:58.756Z,18.15
2023-05-15T21:09:26.306Z,19.15
2023-05-15T21:11:53.509Z,17.63
2023-05-15T21:14:21.062Z,16.83
2023-05-15T21:16:48.321Z,17.75
2023-05-15T21:19:15.997Z,18.13
2023-05-15T21:21:43.274Z,16.75
2023-05-15T21:24:10.866Z,16.35
2023-05-15T21:26:38.038Z,15.23
2023-05-15T21:29:05.678Z,16.95
2023-05-15T21:31:33.114Z,15.57
2023-05-15T21:34:00.790Z,15.30
2023-05-15T21:36:27.949Z,14.82
2023-05-15T21:38:55.458Z,13.35
2023-05-15T21:41:22.763Z,12.85
2023-05-15T21:43:50.264Z,11.60
2023-05-15T21:46:17.521Z,11.60
2023-05-15T21:48:46.133Z,9.48
2023-05-15T21:51:13.381Z,10.73
2023-05-15T21:53:41.102Z,11.15
2023-05-15T21:56:08.592Z,9.90
2023-05-15T21:58:36.132Z,10.25
2023-05-15T22:01:03.311Z,9.57
2023-05-15T22:03:31.209Z,9.30
2023-05-15T22:05:58.581Z,8.98
2023-05-15T22:08:26.676Z,8.93
2023-05-15T22:10:54.029Z,8.63
2023-05-15T22:13:21.707Z,7.32
2023-05-15T22:15:48.930Z,8.25
2023-05-15T22:18:16.577Z,8.27
2023-05-15T22:20:45.178Z,8.25
2023-05-15T22:23:12.730Z,9.05
2023-05-15T22:25:40.000Z,9.35
2023-05-15T22:28:07.497Z,9.02
2023-05-15T22:30:35.608Z,9.73
2023-05-15T22:33:03.126Z,10.07
2023-05-15T22:35:30.661Z,9.70
2023-05-15T22:37:58.130Z,10.00
2023-05-15T22:40:26.359Z,10.48
2023-05-15T22:42:54.095Z,11.90
2023-05-15T22:45:21.262Z,10.93
2023-05-15T22:47:49.552Z,11.32
2023-05-15T22:50:16.888Z,12.88
2023-05-15T22:52:44.310Z,12.57
2023-05-15T22:55:12.963Z,13.43
2023-05-15T22:57:40.532Z,12.43
2023-05-15T23:00:09.865Z,11.57
2023-05-15T23:02:38.546Z,12.27
2023-05-15T23:05:06.559Z,10.82
2023-05-15T23:07:34.441Z,9.70
2023-05-15T23:10:01.735Z,9.57
2023-05-15T23:12:30.946Z,7.97
2023-05-15T23:14:58.154Z,7.93
2023-05-15T23:17:26.640Z,8.00
2023-05-15T23:19:54.021Z,7.10
2023-05-15T23:22:21.451Z,7.70
2023-05-15T23:24:48.762Z,7.53
2023-05-15T23:27:16.280Z,6.85
2023-05-15T23:29:43.452Z,6.82
2023-05-15T23:32:10.939Z,6.82
2023-05-15T23:34:38.125Z,6.05
2023-05-15T23:37:06.000Z,6.38
2023-05-15T23:39:33.166Z,7.00
2023-05-15T23:42:00.647Z,6.32
2023-05-15T23:44:27.991Z,6.70
2023-05-15T23:46:55.701Z,6.68
2023-05-15T23:49:23.053Z,5.95
2023-05-15T23:51:50.571Z,6.05
2023-05-15T23:54:17.773Z,6.38
2023-05-15T23:56:45.433Z,5.90
2023-05-15T23:59:13.875Z,6.18
